createdAt,value
2022-12-06T00:02:45.868Z,98749.02
2022-12-06T00:13:13.259Z,98745.58
2022-12-06T00:23:42.457Z,98738.13
2022-12-06T00:34:09.974Z,98722.73
2022-12-06T00:44:37.258Z,98714.23
2022-12-06T00:55:04.644Z,98705.39
2022-12-06T01:05:33.331Z,98681.55
2022-12-06T01:16:04.958Z,98662.98
2022-12-06T01:26:33.959Z,98656.75
2022-12-06T01:37:01.243Z,98632.58
2022-12-06T01:47:30.698Z,98612.88
2022-12-06T01:58:04.527Z,98604.85
2022-12-06T02:08:32.980Z,98592.75
2022-12-06T02:19:08.143Z,98575.66
2022-12-06T02:29:59.815Z,98565.30
2022-12-06T02:40:33.312Z,98548.36
2022-12-06T02:51:04.012Z,98529.77
2022-12-06T03:01:34.387Z,98519.67
2022-12-06T03:12:08.125Z,98514.71
2022-12-06T03:22:40.720Z,98500.11
2022-12-06T03:33:08.663Z,98508.98
2022-12-06T03:43:37.050Z,98515.51
2022-12-06T03:54:06.951Z,98511.79
2022-12-06T04:04:34.388Z,98499.58
2022-12-06T04:15:01.616Z,98488.85
2022-12-06T04:25:28.873Z,98481.25
2022-12-06T04:36:16.159Z,98487.14
2022-12-06T04:46:43.731Z,98493.88
2022-12-06T04:57:13.371Z,98489.20
2022-12-06T05:07:40.745Z,98471.21
2022-12-06T05:18:08.343Z,98463.61
2022-12-06T05:28:36.177Z,98469.31
2022-12-06T05:39:03.462Z,98460.60
2022-12-06T05:49:30.767Z,98449.65
2022-12-06T05:59:58.412Z,98439.13
2022-12-06T06:10:26.582Z,98437.45
2022-12-06T06:20:55.292Z,98428.84
2022-12-06T06:31:22.737Z,98433.34
2022-12-06T06:41:50.332Z,98417.45
2022-12-06T06:52:18.171Z,98404.83
2022-12-06T07:02:45.520Z,98393.94
2022-12-06T07:13:12.916Z,98391.00
2022-12-06T07:23:40.324Z,98380.27
2022-12-06T07:34:07.651Z,98387.20
2022-12-06T07:44:55.539Z,98384.94
2022-12-06T07:55:27.357Z,98385.63
2022-12-06T08:05:57.622Z,98384.41
2022-12-06T08:16:25.158Z,98383.90
2022-12-06T08:26:53.247Z,98378.02
2022-12-06T08:37:20.585Z,98378.21
2022-12-06T08:47:47.872Z,98378.53
2022-12-06T08:58:15.228Z,98375.39
2022-12-06T09:08:42.761Z,98378.22
2022-12-06T09:19:10.772Z,98374.10
2022-12-06T09:29:40.748Z,98367.34
2022-12-06T09:40:15.251Z,98357.72
2022-12-06T09:50:52.540Z,98346.40
2022-12-06T10:01:27.502Z,98335.62
2022-12-06T10:12:08.250Z,98334.27
2022-12-06T10:22:47.592Z,98336.34
2022-12-06T10:33:28.254Z,98332.13
2022-12-06T10:44:03.286Z,98327.72
2022-12-06T10:54:36.652Z,98312.81
2022-12-06T11:05:11.628Z,98306.81
2022-12-06T11:15:43.884Z,98304.25
2022-12-06T11:26:21.040Z,98297.62
2022-12-06T11:36:59.640Z,98292.39
2022-12-06T11:47:28.010Z,98290.75
2022-12-06T11:58:00.540Z,98280.33
2022-12-06T12:08:32.840Z,98271.91
2022-12-06T12:19:04.895Z,98266.51
2022-12-06T12:29:32.493Z,98265.46
2022-12-06T12:40:02.003Z,98260.61
2022-12-06T12:50:33.624Z,98249.61
2022-12-06T13:01:08.002Z,98252.88
2022-12-06T13:11:43.886Z,98245.14
2022-12-06T13:22:20.211Z,98246.54
2022-12-06T13:32:51.991Z,98239.30
2022-12-06T13:43:57.096Z,98235.17
2022-12-06T13:54:35.321Z,98235.94
2022-12-06T14:05:03.040Z,98234.80
2022-12-06T14:15:31.566Z,98231.54
2022-12-06T14:26:21.188Z,98236.83
2022-12-06T14:36:48.595Z,98229.05
2022-12-06T14:47:18.596Z,98222.30
2022-12-06T14:57:49.127Z,98227.12
2022-12-06T15:08:35.058Z,98233.44
2022-12-06T15:19:03.024Z,98244.57
2022-12-06T15:29:30.435Z,98255.03
2022-12-06T15:39:58.133Z,98252.42
2022-12-06T15:50:26.294Z,98259.46
2022-12-06T16:00:55.268Z,98259.54
2022-12-06T16:11:25.544Z,98260.76
2022-12-06T16:21:58.171Z,98260.13
2022-12-06T16:32:25.641Z,98264.64
2022-12-06T16:42:53.171Z,98263.93
2022-12-06T16:53:20.615Z,98263.08
2022-12-06T17:03:50.162Z,98261.23
2022-12-06T17:14:18.857Z,98262.13
2022-12-06T17:24:46.747Z,98270.59
2022-12-06T17:35:14.376Z,98267.17
2022-12-06T17:45:41.860Z,98273.83
2022-12-06T17:56:30.567Z,98269.30
2022-12-06T18:06:58.340Z,98274.69
2022-12-06T18:17:25.816Z,98273.63
2022-12-06T18:27:53.403Z,98271.94
2022-12-06T18:38:21.032Z,98272.51
2022-12-06T18:48:50.780Z,98269.58
2022-12-06T18:59:20.107Z,98269.73
2022-12-06T19:09:50.775Z,98268.97
2022-12-06T19:20:18.799Z,98278.35
2022-12-06T19:30:46.248Z,98276.16
2022-12-06T19:41:16.843Z,98279.23
2022-12-06T19:51:46.693Z,98271.34
2022-12-06T20:02:14.952Z,98270.86
2022-12-06T20:12:42.652Z,98273.71
2022-12-06T20:23:10.755Z,98274.15
2022-12-06T20:33:38.277Z,98270.11
2022-12-06T20:44:05.951Z,98268.27
2022-12-06T20:54:33.710Z,98254.48
2022-12-06T21:05:01.436Z,98247.02
2022-12-06T21:15:29.298Z,98251.79
2022-12-06T21:25:57.097Z,98255.90
2022-12-06T21:36:24.569Z,98264.11
2022-12-06T21:46:54.857Z,98261.58
2022-12-06T21:57:22.444Z,98267.13
2022-12-06T22:07:49.870Z,98260.44
2022-12-06T22:18:17.388Z,98257.70
2022-12-06T22:28:45.171Z,98244.66
2022-12-06T22:39:13.231Z,98243.98
2022-12-06T22:49:40.635Z,98232.70
2022-12-06T23:00:10.157Z,98232.92
2022-12-06T23:10:37.769Z,98230.13
2022-12-06T23:21:08.002Z,98225.77
2022-12-06T23:31:37.540Z,98214.49
2022-12-06T23:42:05.135Z,98198.98
2022-12-06T23:52:32.490Z,98196.58
